createdAt,value
2018-10-09T00:02:17.801Z,6.77
2018-10-09T00:04:46.019Z,8.73
2018-10-09T00:07:14.212Z,7.17
2018-10-09T00:09:42.338Z,9.30
2018-10-09T00:12:10.491Z,5.47
2018-10-09T00:14:38.658Z,6.33
2018-10-09T00:17:06.992Z,11.57
2018-10-09T00:19:35.157Z,5.37
2018-10-09T00:22:03.285Z,9.07
2018-10-09T00:24:31.433Z,4.97
2018-10-09T00:26:59.555Z,7.63
2018-10-09T00:29:27.720Z,6.77
2018-10-09T00:31:55.897Z,15.47
2018-10-09T00:34:24.058Z,5.70
2018-10-09T00:36:52.213Z,8.43
2018-10-09T00:39:20.335Z,5.43
2018-10-09T00:41:48.541Z,7.90
2018-10-09T00:44:16.689Z,6.70
2018-10-09T00:46:44.810Z,7.87
2018-10-09T00:49:12.945Z,7.87
2018-10-09T00:51:41.089Z,6.93
2018-10-09T00:54:09.233Z,5.70
2018-10-09T00:56:37.369Z,6.90
2018-10-09T00:59:05.605Z,9.07
2018-10-09T01:01:33.726Z,9.97
2018-10-09T01:04:02.070Z,7.90
2018-10-09T01:06:30.222Z,6.80
2018-10-09T01:08:58.369Z,7.00
2018-10-09T01:11:26.522Z,7.23
2018-10-09T01:13:54.669Z,8.33
2018-10-09T01:16:22.821Z,6.13
2018-10-09T01:18:51.010Z,8.23
2018-10-09T01:21:19.153Z,7.67
2018-10-09T01:23:47.282Z,8.20
2018-10-09T01:26:15.431Z,6.97
2018-10-09T01:28:43.560Z,8.10
2018-10-09T01:31:11.687Z,5.60
2018-10-09T01:33:39.826Z,8.60
2018-10-09T01:36:07.989Z,7.00
2018-10-09T01:38:36.157Z,8.20
2018-10-09T01:41:04.342Z,7.60
2018-10-09T01:43:32.461Z,7.50
2018-10-09T01:46:00.590Z,8.07
2018-10-09T01:48:28.719Z,9.53
2018-10-09T01:50:56.846Z,6.30
2018-10-09T01:53:24.993Z,6.77
2018-10-09T01:55:53.147Z,7.93
2018-10-09T01:58:21.356Z,9.57
2018-10-09T02:00:49.505Z,8.17
2018-10-09T02:03:17.730Z,7.17
2018-10-09T02:05:45.864Z,7.33
2018-10-09T02:08:14.047Z,7.00
2018-10-09T02:10:42.218Z,8.70
2018-10-09T02:13:10.370Z,8.37
2018-10-09T02:15:38.565Z,9.67
2018-10-09T02:18:06.745Z,9.33
2018-10-09T02:20:34.890Z,8.87
2018-10-09T02:23:03.038Z,6.43
2018-10-09T02:25:31.165Z,8.30
2018-10-09T02:27:59.344Z,11.33
2018-10-09T02:30:27.512Z,8.10
2018-10-09T02:32:55.681Z,8.37
2018-10-09T02:35:23.837Z,7.47
2018-10-09T02:37:52.158Z,8.77
2018-10-09T02:40:20.585Z,8.83
2018-10-09T02:42:48.729Z,9.67
2018-10-09T02:45:16.863Z,7.63
2018-10-09T02:47:45.022Z,7.00
2018-10-09T02:50:13.218Z,9.47
2018-10-09T02:52:41.342Z,9.13
2018-10-09T02:55:09.493Z,9.33
2018-10-09T02:57:37.690Z,8.80
2018-10-09T03:00:05.947Z,9.20
2018-10-09T03:02:34.130Z,7.13
2018-10-09T03:05:02.297Z,10.33
2018-10-09T03:07:30.458Z,12.80
2018-10-09T03:09:58.610Z,9.83
2018-10-09T03:12:26.808Z,12.53
2018-10-09T03:14:54.926Z,7.73
2018-10-09T03:17:23.063Z,11.73
2018-10-09T03:19:51.204Z,9.27
2018-10-09T03:22:19.342Z,9.20
2018-10-09T03:24:47.483Z,7.17
2018-10-09T03:27:15.786Z,9.50
2018-10-09T03:29:43.905Z,10.37
2018-10-09T03:32:12.072Z,9.77
2018-10-09T03:34:40.245Z,9.20
2018-10-09T03:37:08.422Z,11.83
2018-10-09T03:39:36.584Z,9.03
2018-10-09T03:42:04.841Z,10.10
2018-10-09T03:44:32.990Z,13.27
2018-10-09T03:47:01.178Z,10.93
2018-10-09T03:49:29.325Z,10.77
2018-10-09T03:51:57.488Z,11.73
2018-10-09T03:54:25.653Z,10.93
2018-10-09T03:56:53.794Z,11.60
2018-10-09T03:59:22.002Z,11.37
2018-10-09T04:01:50.161Z,12.40
2018-10-09T04:04:18.329Z,15.17
2018-10-09T04:06:46.514Z,13.37
2018-10-09T04:09:14.895Z,11.97
2018-10-09T04:11:43.532Z,13.17
2018-10-09T04:14:11.686Z,11.87
2018-10-09T04:16:39.854Z,14.00
2018-10-09T04:19:08.050Z,10.60
2018-10-09T04:21:36.297Z,12.23
2018-10-09T04:24:04.490Z,11.73
2018-10-09T04:26:32.669Z,14.37
2018-10-09T04:29:00.878Z,12.70
2018-10-09T04:31:29.089Z,13.43
2018-10-09T04:33:57.259Z,10.87
2018-10-09T04:36:25.440Z,12.73
2018-10-09T04:38:53.609Z,10.30
2018-10-09T04:41:21.785Z,11.13
2018-10-09T04:43:50.101Z,11.40
2018-10-09T04:46:18.266Z,14.87
2018-10-09T04:48:46.458Z,11.60
2018-10-09T04:51:14.642Z,12.13
2018-10-09T04:53:42.778Z,18.97
2018-10-09T04:56:10.938Z,16.97
2018-10-09T04:58:39.121Z,13.47
2018-10-09T05:01:07.263Z,14.03
2018-10-09T05:03:35.477Z,12.43
2018-10-09T05:06:03.667Z,14.17
2018-10-09T05:08:31.850Z,20.40
2018-10-09T05:11:00.027Z,15.40
2018-10-09T05:13:28.197Z,14.27
2018-10-09T05:15:56.454Z,14.07
2018-10-09T05:18:24.629Z,16.10
2018-10-09T05:20:52.774Z,16.27
2018-10-09T05:23:20.925Z,15.70
2018-10-09T05:25:49.120Z,16.77
2018-10-09T05:28:17.308Z,13.20
2018-10-09T05:30:45.442Z,12.00
2018-10-09T05:33:13.612Z,11.73
2018-10-09T05:35:41.816Z,16.90
2018-10-09T05:38:10.112Z,16.00
2018-10-09T05:40:38.289Z,13.00
2018-10-09T05:43:06.545Z,14.27
2018-10-09T05:45:39.117Z,13.53
2018-10-09T05:48:08.077Z,17.53
2018-10-09T05:50:36.265Z,17.30
2018-10-09T05:53:04.480Z,13.77
2018-10-09T05:55:32.630Z,15.23
2018-10-09T05:58:01.139Z,15.33
2018-10-09T06:00:29.329Z,14.13
2018-10-09T06:02:57.640Z,11.07
2018-10-09T06:05:25.773Z,13.00
2018-10-09T06:07:54.105Z,14.77
2018-10-09T06:10:22.294Z,17.40
2018-10-09T06:12:50.540Z,16.73
2018-10-09T06:15:18.737Z,18.03
2018-10-09T06:17:46.969Z,14.23
2018-10-09T06:20:15.138Z,15.27
2018-10-09T06:22:43.417Z,18.23
2018-10-09T06:25:11.604Z,15.43
2018-10-09T06:27:39.953Z,20.87
2018-10-09T06:30:08.139Z,15.40
2018-10-09T06:32:36.345Z,17.13
2018-10-09T06:35:05.037Z,18.60
2018-10-09T06:37:33.298Z,18.27
2018-10-09T06:40:01.461Z,20.80
2018-10-09T06:42:29.701Z,17.77
2018-10-09T06:44:57.819Z,21.53
2018-10-09T06:47:26.538Z,18.17
2018-10-09T06:49:54.661Z,17.07
2018-10-09T06:52:22.801Z,16.87
2018-10-09T06:54:51.059Z,16.70
2018-10-09T06:57:19.178Z,17.23
2018-10-09T06:59:47.325Z,20.27
2018-10-09T07:02:15.479Z,23.73
2018-10-09T07:04:43.650Z,17.07
2018-10-09T07:07:11.822Z,16.70
2018-10-09T07:09:40.006Z,20.90
2018-10-09T07:12:08.182Z,21.00
2018-10-09T07:14:36.332Z,20.43
2018-10-09T07:17:04.530Z,22.73
2018-10-09T07:19:32.710Z,15.63
2018-10-09T07:22:00.899Z,17.53
2018-10-09T07:24:29.103Z,16.53
2018-10-09T07:26:57.370Z,19.03
2018-10-09T07:29:25.530Z,20.27
2018-10-09T07:31:53.678Z,25.47
2018-10-09T07:34:21.818Z,21.50
2018-10-09T07:36:49.951Z,27.23
2018-10-09T07:39:18.101Z,24.03
2018-10-09T07:41:46.259Z,24.20
2018-10-09T07:44:14.472Z,20.43
2018-10-09T07:46:42.699Z,22.37
2018-10-09T07:49:10.850Z,22.20
2018-10-09T07:51:39.050Z,21.23
2018-10-09T07:54:07.325Z,22.27
2018-10-09T07:56:35.458Z,21.80
2018-10-09T07:59:03.629Z,26.50
2018-10-09T08:01:31.786Z,21.37
2018-10-09T08:03:59.941Z,27.03
2018-10-09T08:06:28.144Z,24.27
2018-10-09T08:08:56.266Z,20.80
2018-10-09T08:11:24.430Z,23.10
2018-10-09T08:13:52.683Z,20.77
2018-10-09T08:16:20.885Z,23.53
2018-10-09T08:18:49.063Z,23.47
2018-10-09T08:21:17.234Z,23.37
2018-10-09T08:23:45.374Z,22.23
2018-10-09T08:26:13.511Z,25.77
2018-10-09T08:28:41.646Z,23.40
2018-10-09T08:31:09.808Z,21.23
2018-10-09T08:33:37.975Z,24.37
2018-10-09T08:36:06.149Z,24.47
2018-10-09T08:38:34.314Z,24.70
2018-10-09T08:41:02.484Z,26.23
2018-10-09T08:43:30.623Z,22.17
2018-10-09T08:45:58.886Z,29.57
2018-10-09T08:48:27.012Z,23.33
2018-10-09T08:50:55.204Z,27.17
2018-10-09T08:53:23.409Z,24.93
2018-10-09T08:55:51.565Z,22.47
2018-10-09T08:58:19.728Z,21.47
2018-10-09T09:00:47.903Z,20.70
2018-10-09T09:03:16.174Z,25.47
2018-10-09T09:05:44.318Z,21.23
2018-10-09T09:08:12.566Z,20.73
2018-10-09T09:10:40.726Z,28.07
2018-10-09T09:13:08.892Z,19.63
2018-10-09T09:15:37.105Z,22.40
2018-10-09T09:18:05.314Z,28.90
2018-10-09T09:20:33.496Z,27.17
2018-10-09T09:23:01.599Z,22.03
2018-10-09T09:25:29.950Z,18.77
2018-10-09T09:27:58.131Z,21.83
2018-10-09T09:30:26.284Z,18.97
2018-10-09T09:32:54.454Z,25.23
2018-10-09T09:35:22.651Z,20.37
2018-10-09T09:37:50.814Z,26.50
2018-10-09T09:40:18.963Z,24.90
2018-10-09T09:42:47.095Z,20.20
2018-10-09T09:45:15.307Z,22.63
2018-10-09T09:47:43.462Z,20.50
2018-10-09T09:50:11.630Z,25.03
2018-10-09T09:52:39.783Z,24.83
2018-10-09T09:55:08.010Z,22.90
2018-10-09T09:57:36.235Z,21.30
2018-10-09T10:00:04.403Z,27.73
2018-10-09T10:02:32.594Z,23.17
2018-10-09T10:05:00.772Z,25.37
2018-10-09T10:07:28.930Z,23.10
2018-10-09T10:09:57.141Z,22.33
2018-10-09T10:12:25.266Z,24.37
2018-10-09T10:14:53.444Z,22.50
2018-10-09T10:17:21.574Z,21.93
2018-10-09T10:19:49.741Z,22.63
2018-10-09T10:22:17.944Z,23.67
2018-10-09T10:24:46.149Z,21.40
2018-10-09T10:27:14.288Z,25.17
2018-10-09T10:29:42.434Z,26.87
2018-10-09T10:32:10.595Z,24.33
2018-10-09T10:34:38.836Z,22.57
2018-10-09T10:37:06.986Z,18.40
2018-10-09T10:39:35.158Z,21.90
2018-10-09T10:42:03.327Z,24.27
2018-10-09T10:44:31.511Z,12.53
2018-10-09T10:46:59.658Z,24.73
2018-10-09T10:49:27.862Z,24.50
2018-10-09T10:51:56.027Z,23.40
2018-10-09T10:54:24.254Z,22.77
2018-10-09T10:56:52.405Z,11.77
2018-10-09T10:59:20.567Z,22.57
2018-10-09T11:01:48.788Z,21.00
2018-10-09T11:04:16.908Z,19.47
2018-10-09T11:06:45.090Z,12.60
2018-10-09T11:09:13.293Z,20.57
2018-10-09T11:11:41.441Z,18.93
2018-10-09T11:14:09.604Z,6.00
2018-10-09T11:16:37.751Z,21.53
2018-10-09T11:19:05.906Z,14.10
2018-10-09T11:21:34.100Z,17.43
2018-10-09T11:24:02.262Z,15.20
2018-10-09T11:26:30.422Z,18.93
2018-10-09T11:28:58.606Z,18.40
2018-10-09T11:31:26.821Z,20.47
2018-10-09T11:33:54.950Z,18.60
2018-10-09T11:36:23.106Z,16.83
2018-10-09T11:38:51.364Z,17.30
2018-10-09T11:41:19.510Z,15.63
2018-10-09T11:43:47.654Z,12.97
2018-10-09T11:46:15.859Z,11.03
2018-10-09T11:48:43.995Z,13.73
2018-10-09T11:51:12.195Z,16.47
2018-10-09T11:53:40.370Z,14.37
2018-10-09T11:56:08.532Z,16.07
2018-10-09T11:58:36.735Z,17.30
2018-10-09T12:01:07.797Z,15.03
2018-10-09T12:03:36.247Z,15.93
2018-10-09T12:06:04.663Z,18.10
2018-10-09T12:08:32.824Z,14.73
2018-10-09T12:11:01.457Z,13.53
2018-10-09T12:13:29.600Z,3.77
2018-10-09T12:15:57.889Z,14.03
2018-10-09T12:18:25.953Z,12.83
2018-10-09T12:20:54.110Z,15.00
2018-10-09T12:23:22.338Z,18.10
2018-10-09T12:25:50.520Z,15.33
2018-10-09T12:28:18.668Z,4.80
2018-10-09T12:30:46.824Z,17.87
2018-10-09T12:33:14.990Z,16.80
2018-10-09T12:35:43.155Z,18.87
2018-10-09T12:38:11.356Z,14.67
2018-10-09T12:40:39.499Z,17.17
2018-10-09T12:43:07.631Z,19.23
2018-10-09T12:45:35.775Z,13.53
2018-10-09T12:48:03.956Z,16.73
2018-10-09T12:50:32.107Z,17.63
2018-10-09T12:53:00.418Z,14.90
2018-10-09T12:55:28.487Z,17.83
2018-10-09T12:57:56.643Z,18.73
2018-10-09T13:00:24.800Z,15.60
2018-10-09T13:02:53.038Z,17.03
2018-10-09T13:05:21.214Z,15.23
2018-10-09T13:07:49.399Z,19.80
2018-10-09T13:10:17.568Z,16.87
2018-10-09T13:12:45.731Z,18.27
2018-10-09T13:15:13.917Z,18.73
2018-10-09T13:17:42.175Z,12.07
2018-10-09T13:20:11.133Z,17.33
2018-10-09T13:22:39.486Z,18.13
2018-10-09T13:25:07.751Z,15.97
2018-10-09T13:27:36.030Z,16.37
2018-10-09T13:30:04.382Z,10.83
2018-10-09T13:32:32.522Z,12.83
2018-10-09T13:35:00.730Z,19.07
2018-10-09T13:37:28.866Z,16.83
2018-10-09T13:39:57.412Z,16.20
2018-10-09T13:42:25.584Z,18.93
2018-10-09T13:44:53.858Z,11.67
2018-10-09T13:47:22.113Z,18.43
2018-10-09T13:49:50.214Z,18.10
2018-10-09T13:52:18.427Z,17.67
2018-10-09T13:54:46.646Z,18.77
2018-10-09T13:57:15.035Z,19.90
2018-10-09T13:59:43.240Z,16.70
2018-10-09T14:02:11.522Z,10.77
2018-10-09T14:04:39.666Z,17.83
2018-10-09T14:07:07.839Z,15.33
2018-10-09T14:09:35.994Z,16.27
2018-10-09T14:12:04.170Z,11.93
2018-10-09T14:14:32.422Z,16.80
2018-10-09T14:17:00.626Z,14.30
2018-10-09T14:19:28.766Z,11.50
2018-10-09T14:21:57.011Z,13.50
2018-10-09T14:24:25.216Z,14.80
2018-10-09T14:26:53.363Z,16.57
2018-10-09T14:29:21.646Z,17.90
2018-10-09T14:31:49.811Z,14.73
2018-10-09T14:34:17.999Z,15.30
2018-10-09T14:36:46.138Z,15.67
2018-10-09T14:39:14.278Z,16.03
2018-10-09T14:41:42.445Z,19.57
2018-10-09T14:44:10.776Z,16.53
2018-10-09T14:46:38.850Z,17.37
2018-10-09T14:49:07.008Z,17.63
2018-10-09T14:51:35.222Z,20.07
2018-10-09T14:54:03.424Z,18.50
2018-10-09T14:56:31.609Z,14.83
2018-10-09T14:58:59.743Z,17.07
2018-10-09T15:01:27.956Z,16.53
2018-10-09T15:03:56.087Z,20.47
2018-10-09T15:06:24.234Z,17.83
2018-10-09T15:08:52.503Z,21.13
2018-10-09T15:11:20.674Z,15.03
2018-10-09T15:13:48.850Z,19.27
2018-10-09T15:16:17.021Z,16.00
2018-10-09T15:18:45.163Z,20.77
2018-10-09T15:21:13.342Z,14.67
2018-10-09T15:23:41.494Z,16.50
2018-10-09T15:26:09.658Z,19.17
2018-10-09T15:28:37.895Z,18.10
2018-10-09T15:31:06.049Z,17.83
2018-10-09T15:33:34.351Z,17.40
2018-10-09T15:36:02.526Z,19.33
2018-10-09T15:38:30.686Z,20.53
2018-10-09T15:40:59.145Z,18.70
2018-10-09T15:46:09.099Z,21.50
2018-10-09T15:48:37.293Z,20.00
2018-10-09T15:51:05.495Z,23.50
2018-10-09T15:53:33.802Z,23.87
2018-10-09T15:56:01.959Z,20.80
2018-10-09T15:58:30.153Z,21.03
2018-10-09T16:00:58.360Z,23.83
2018-10-09T16:03:26.642Z,21.80
2018-10-09T16:05:54.778Z,22.30
2018-10-09T16:08:22.954Z,21.00
2018-10-09T16:10:51.123Z,19.57
2018-10-09T16:13:19.328Z,23.13
2018-10-09T16:15:47.566Z,22.87
2018-10-09T16:18:15.711Z,20.23
2018-10-09T16:20:43.966Z,23.07
2018-10-09T16:23:12.140Z,21.63
2018-10-09T16:25:40.318Z,24.27
2018-10-09T16:28:08.931Z,20.00
2018-10-09T16:30:37.139Z,26.93
2018-10-09T16:33:05.316Z,24.60
2018-10-09T16:35:33.512Z,26.40
2018-10-09T16:38:01.693Z,23.20
2018-10-09T16:40:29.862Z,24.43
2018-10-09T16:42:58.050Z,22.27
2018-10-09T16:45:26.229Z,22.53
2018-10-09T16:47:54.386Z,23.73
2018-10-09T16:50:22.712Z,22.60
2018-10-09T16:52:51.113Z,30.83
2018-10-09T16:55:19.286Z,20.30
2018-10-09T16:57:47.426Z,24.97
2018-10-09T17:00:15.695Z,19.10
2018-10-09T17:02:43.804Z,23.83
2018-10-09T17:05:11.991Z,23.03
2018-10-09T17:07:40.153Z,25.73
2018-10-09T17:10:08.319Z,23.37
2018-10-09T17:12:36.547Z,21.20
2018-10-09T17:15:05.010Z,26.60
2018-10-09T17:17:33.242Z,26.60
2018-10-09T17:20:01.385Z,23.07
2018-10-09T17:22:29.583Z,21.50
2018-10-09T17:24:57.694Z,23.27
2018-10-09T17:27:25.897Z,22.23
2018-10-09T17:29:54.155Z,23.30
2018-10-09T17:32:22.413Z,22.07
2018-10-09T17:34:50.551Z,21.40
2018-10-09T17:37:18.708Z,21.27
2018-10-09T17:39:46.863Z,26.77
2018-10-09T17:42:15.052Z,24.10
2018-10-09T17:44:43.192Z,27.87
2018-10-09T17:47:11.483Z,24.77
2018-10-09T17:49:41.096Z,24.23
2018-10-09T17:52:10.124Z,22.87
2018-10-09T17:54:38.307Z,24.73
2018-10-09T17:57:06.614Z,23.50
2018-10-09T17:59:34.770Z,24.67
2018-10-09T18:02:02.907Z,25.03
2018-10-09T18:04:31.091Z,20.57
2018-10-09T18:06:59.236Z,24.23
2018-10-09T18:09:27.371Z,24.20
2018-10-09T18:11:55.567Z,24.33
2018-10-09T18:14:23.717Z,25.47
2018-10-09T18:16:51.974Z,28.40
2018-10-09T18:19:20.151Z,25.27
2018-10-09T18:21:48.394Z,22.93
2018-10-09T18:24:16.588Z,20.53
2018-10-09T18:26:44.787Z,21.73
2018-10-09T18:29:12.972Z,26.70
2018-10-09T18:31:41.111Z,24.37
2018-10-09T18:34:09.301Z,23.63
2018-10-09T18:36:37.774Z,20.53
2018-10-09T18:39:10.640Z,22.67
2018-10-09T18:41:39.004Z,22.40
2018-10-09T18:44:07.013Z,21.43
2018-10-09T18:46:35.160Z,20.77
2018-10-09T18:49:03.558Z,20.20
2018-10-09T18:51:32.107Z,22.73
2018-10-09T18:54:00.214Z,22.87
2018-10-09T18:56:28.423Z,18.30
2018-10-09T18:58:56.732Z,21.83
2018-10-09T19:01:24.899Z,25.43
2018-10-09T19:03:53.135Z,22.10
2018-10-09T19:06:21.307Z,23.63
2018-10-09T19:08:49.451Z,26.30
2018-10-09T19:11:17.591Z,24.33
2018-10-09T19:13:45.741Z,26.13
2018-10-09T19:16:14.289Z,24.20
2018-10-09T19:18:42.447Z,22.17
2018-10-09T19:21:10.587Z,25.17
2018-10-09T19:23:38.786Z,21.47
2018-10-09T19:26:06.943Z,25.00
2018-10-09T19:28:35.103Z,23.20
2018-10-09T19:31:03.314Z,21.70
2018-10-09T19:33:31.457Z,21.20
2018-10-09T19:35:59.611Z,22.40
2018-10-09T19:38:27.738Z,23.53
2018-10-09T19:40:56.009Z,25.60
2018-10-09T19:43:24.160Z,19.07
2018-10-09T19:45:52.278Z,19.50
2018-10-09T19:48:20.424Z,18.87
2018-10-09T19:50:48.685Z,21.27
2018-10-09T19:53:16.783Z,24.70
2018-10-09T19:55:44.919Z,20.63
2018-10-09T19:58:13.067Z,22.77
2018-10-09T20:00:41.235Z,20.40
2018-10-09T20:03:09.374Z,22.60
2018-10-09T20:05:37.547Z,22.03
2018-10-09T20:08:06.053Z,19.27
2018-10-09T20:10:34.205Z,21.70
2018-10-09T20:13:02.366Z,18.93
2018-10-09T20:15:30.507Z,19.57
2018-10-09T20:17:58.651Z,18.63
2018-10-09T20:20:26.778Z,17.90
2018-10-09T20:22:54.926Z,21.50
2018-10-09T20:25:23.098Z,20.50
2018-10-09T20:27:51.274Z,16.87
2018-10-09T20:30:19.425Z,19.17
2018-10-09T20:32:47.566Z,19.90
2018-10-09T20:35:15.707Z,17.30
2018-10-09T20:37:43.858Z,23.23
2018-10-09T20:40:11.997Z,22.73
2018-10-09T20:42:40.123Z,14.73
2018-10-09T20:45:08.263Z,22.53
2018-10-09T20:47:41.869Z,16.53
2018-10-09T20:50:10.054Z,19.00
2018-10-09T20:52:38.242Z,23.73
2018-10-09T20:55:06.431Z,21.67
2018-10-09T20:57:34.582Z,19.47
2018-10-09T21:00:02.875Z,19.67
2018-10-09T21:02:31.055Z,17.13
2018-10-09T21:04:59.182Z,17.27
2018-10-09T21:07:27.330Z,17.93
2018-10-09T21:09:55.471Z,20.33
2018-10-09T21:12:23.631Z,13.73
2018-10-09T21:14:51.762Z,14.40
2018-10-09T21:17:20.041Z,18.77
2018-10-09T21:19:48.256Z,18.53
2018-10-09T21:22:16.426Z,19.63
2018-10-09T21:24:44.866Z,20.97
2018-10-09T21:27:13.043Z,17.57
2018-10-09T21:29:41.218Z,17.47
2018-10-09T21:32:09.309Z,17.83
2018-10-09T21:34:37.550Z,18.53
2018-10-09T21:37:05.895Z,18.53
2018-10-09T21:39:34.062Z,14.73
2018-10-09T21:42:02.221Z,15.40
2018-10-09T21:44:30.375Z,14.67
2018-10-09T21:46:58.620Z,16.63
2018-10-09T21:49:26.772Z,15.07
2018-10-09T21:51:54.928Z,14.50
2018-10-09T21:54:23.060Z,15.17
2018-10-09T21:56:51.202Z,15.50
2018-10-09T21:59:19.394Z,12.73
2018-10-09T22:01:47.521Z,15.23
2018-10-09T22:04:15.656Z,15.77
2018-10-09T22:06:43.832Z,15.33
2018-10-09T22:09:12.035Z,17.97
2018-10-09T22:11:40.286Z,14.50
2018-10-09T22:14:08.438Z,14.20
2018-10-09T22:16:36.595Z,13.67
2018-10-09T22:19:04.772Z,15.10
2018-10-09T22:21:32.990Z,14.00
2018-10-09T22:24:01.226Z,15.23
2018-10-09T22:26:29.374Z,15.03
2018-10-09T22:28:57.555Z,15.47
2018-10-09T22:31:25.726Z,17.17
2018-10-09T22:33:53.902Z,14.57
2018-10-09T22:36:22.064Z,14.63
2018-10-09T22:38:50.264Z,11.13
2018-10-09T22:41:18.519Z,13.30
2018-10-09T22:43:46.655Z,15.63
2018-10-09T22:46:14.787Z,13.80
2018-10-09T22:48:42.945Z,10.90
2018-10-09T22:51:11.074Z,16.20
2018-10-09T22:53:39.226Z,14.37
2018-10-09T22:56:07.349Z,12.43
2018-10-09T22:58:35.491Z,12.27
2018-10-09T23:01:03.650Z,16.37
2018-10-09T23:03:31.990Z,15.23
2018-10-09T23:06:00.143Z,13.33
2018-10-09T23:08:28.322Z,16.60
2018-10-09T23:10:56.451Z,14.43
2018-10-09T23:13:24.653Z,11.53
2018-10-09T23:15:52.800Z,12.80
2018-10-09T23:18:20.938Z,13.73
2018-10-09T23:20:49.076Z,18.13
2018-10-09T23:23:17.205Z,12.00
2018-10-09T23:25:45.399Z,13.83
2018-10-09T23:28:13.555Z,11.73
2018-10-09T23:30:41.672Z,15.30
2018-10-09T23:33:09.876Z,12.00
2018-10-09T23:35:38.016Z,13.07
2018-10-09T23:38:06.170Z,13.93
2018-10-09T23:40:34.310Z,13.43
2018-10-09T23:43:02.459Z,13.43
2018-10-09T23:45:30.596Z,14.03
2018-10-09T23:48:06.860Z,12.00
2018-10-09T23:50:36.528Z,10.07
2018-10-09T23:53:04.744Z,13.73
2018-10-09T23:55:32.931Z,15.53
2018-10-09T23:58:01.060Z,11.33
